sensor_id;sensor_type;location;lat;lon;timestamp;temperature;humidity
11043;DHT22;5574;48.786;10.120;2022-10-22T00:00:22;14.20;99.90
11043;DHT22;5574;48.786;10.120;2022-10-22T00:02:49;14.20;99.90
11043;DHT22;5574;48.786;10.120;2022-10-22T00:05:16;14.20;99.90
11043;DHT22;5574;48.786;10.120;2022-10-22T00:07:42;14.10;99.90
11043;DHT22;5574;48.786;10.120;2022-10-22T00:10:09;14.20;99.90
11043;DHT22;5574;48.786;10.120;2022-10-22T00:12:38;14.10;99.90
11043;DHT22;5574;48.786;10.120;2022-10-22T00:15:05;14.10;99.90
11043;DHT22;5574;48.786;10.120;2022-10-22T00:17:32;14.10;99.90
11043;DHT22;5574;48.786;10.120;2022-10-22T00:19:59;14.10;99.90
11043;DHT22;5574;48.786;10.120;2022-10-22T00:22:25;14.10;99.90
11043;DHT22;5574;48.786;10.120;2022-10-22T00:24:52;14.00;99.90
11043;DHT22;5574;48.786;10.120;2022-10-22T00:27:19;14.00;99.90
11043;DHT22;5574;48.786;10.120;2022-10-22T00:29:47;14.00;99.90
11043;DHT22;5574;48.786;10.120;2022-10-22T00:32:14;14.00;99.90
11043;DHT22;5574;48.786;10.120;2022-10-22T00:34:41;14.00;99.90
11043;DHT22;5574;48.786;10.120;2022-10-22T00:37:07;14.00;99.90
11043;DHT22;5574;48.786;10.120;2022-10-22T00:39:34;13.90;99.90
11043;DHT22;5574;48.786;10.120;2022-10-22T00:42:01;13.90;99.90
11043;DHT22;5574;48.786;10.120;2022-10-22T00:45:05;13.90;99.90
11043;DHT22;5574;48.786;10.120;2022-10-22T00:47:35;13.90;99.90
11043;DHT22;5574;48.786;10.120;2022-10-22T00:50:06;13.80;99.90
11043;DHT22;5574;48.786;10.120;2022-10-22T00:52:34;13.80;99.90
11043;DHT22;5574;48.786;10.120;2022-10-22T00:55:02;13.80;99.90
11043;DHT22;5574;48.786;10.120;2022-10-22T00:57:29;13.80;99.90
11043;DHT22;5574;48.786;10.120;2022-10-22T00:59:56;13.80;99.90
11043;DHT22;5574;48.786;10.120;2022-10-22T01:02:24;13.80;99.90
11043;DHT22;5574;48.786;10.120;2022-10-22T01:04:52;13.80;99.90
11043;DHT22;5574;48.786;10.120;2022-10-22T01:07:21;13.80;99.90
11043;DHT22;5574;48.786;10.120;2022-10-22T01:09:55;13.80;99.90
11043;DHT22;5574;48.786;10.120;2022-10-22T01:12:33;13.70;99.90
11043;DHT22;5574;48.786;10.120;2022-10-22T01:15:09;13.70;99.90
11043;DHT22;5574;48.786;10.120;2022-10-22T01:17:48;13.70;99.90
11043;DHT22;5574;48.786;10.120;2022-10-22T01:20:35;13.70;99.90
11043;DHT22;5574;48.786;10.120;2022-10-22T01:23:16;13.60;99.90
11043;DHT22;5574;48.786;10.120;2022-10-22T01:25:52;13.60;99.90
11043;DHT22;5574;48.786;10.120;2022-10-22T01:28:36;13.60;99.90
11043;DHT22;5574;48.786;10.120;2022-10-22T01:31:06;13.60;99.90
11043;DHT22;5574;48.786;10.120;2022-10-22T01:33:35;13.50;99.90
11043;DHT22;5574;48.786;10.120;2022-10-22T01:36:03;13.60;99.90
11043;DHT22;5574;48.786;10.120;2022-10-22T01:38:30;13.60;99.90
11043;DHT22;5574;48.786;10.120;2022-10-22T01:40:58;13.50;99.90
11043;DHT22;5574;48.786;10.120;2022-10-22T01:43:25;13.50;99.90
11043;DHT22;5574;48.786;10.120;2022-10-22T01:45:58;13.50;99.90
11043;DHT22;5574;48.786;10.120;2022-10-22T01:48:33;13.50;99.90
11043;DHT22;5574;48.786;10.120;2022-10-22T01:53:52;13.40;99.90
11043;DHT22;5574;48.786;10.120;2022-10-22T01:56:34;13.40;99.90
11043;DHT22;5574;48.786;10.120;2022-10-22T01:59:10;13.40;99.90
11043;DHT22;5574;48.786;10.120;2022-10-22T02:01:48;13.40;99.90
11043;DHT22;5574;48.786;10.120;2022-10-22T02:04:24;13.40;99.90
11043;DHT22;5574;48.786;10.120;2022-10-22T02:06:54;13.40;99.90
11043;DHT22;5574;48.786;10.120;2022-10-22T02:09:23;13.40;99.90
11043;DHT22;5574;48.786;10.120;2022-10-22T02:11:51;13.40;99.90
11043;DHT22;5574;48.786;10.120;2022-10-22T02:14:20;13.40;99.90
11043;DHT22;5574;48.786;10.120;2022-10-22T02:16:49;13.40;99.90
11043;DHT22;5574;48.786;10.120;2022-10-22T02:19:22;13.40;99.90
11043;DHT22;5574;48.786;10.120;2022-10-22T02:21:50;13.30;99.90
11043;DHT22;5574;48.786;10.120;2022-10-22T02:24:17;13.40;99.90
11043;DHT22;5574;48.786;10.120;2022-10-22T02:26:49;13.40;99.90
11043;DHT22;5574;48.786;10.120;2022-10-22T02:29:21;13.40;99.90
11043;DHT22;5574;48.786;10.120;2022-10-22T02:31:54;13.40;99.90
11043;DHT22;5574;48.786;10.120;2022-10-22T02:34:24;13.40;99.90
11043;DHT22;5574;48.786;10.120;2022-10-22T02:36:53;13.40;99.90
11043;DHT22;5574;48.786;10.120;2022-10-22T02:39:21;13.40;99.90
11043;DHT22;5574;48.786;10.120;2022-10-22T02:41:48;13.40;99.90
11043;DHT22;5574;48.786;10.120;2022-10-22T02:44:14;13.30;99.90
11043;DHT22;5574;48.786;10.120;2022-10-22T02:46:42;13.40;99.90
11043;DHT22;5574;48.786;10.120;2022-10-22T02:49:10;13.40;99.90
11043;DHT22;5574;48.786;10.120;2022-10-22T02:51:36;13.40;99.90
11043;DHT22;5574;48.786;10.120;2022-10-22T02:54:03;13.30;99.90
11043;DHT22;5574;48.786;10.120;2022-10-22T02:56:30;13.30;99.90
11043;DHT22;5574;48.786;10.120;2022-10-22T02:58:57;13.30;99.90
11043;DHT22;5574;48.786;10.120;2022-10-22T03:01:23;13.30;99.90
11043;DHT22;5574;48.786;10.120;2022-10-22T03:03:50;13.30;99.90
11043;DHT22;5574;48.786;10.120;2022-10-22T03:06:18;13.30;99.90
11043;DHT22;5574;48.786;10.120;2022-10-22T03:08:45;13.30;99.90
11043;DHT22;5574;48.786;10.120;2022-10-22T03:11:12;13.30;99.90
11043;DHT22;5574;48.786;10.120;2022-10-22T03:13:38;13.20;99.90
11043;DHT22;5574;48.786;10.120;2022-10-22T03:16:06;13.20;99.90
11043;DHT22;5574;48.786;10.120;2022-10-22T03:18:32;13.20;99.90
11043;DHT22;5574;48.786;10.120;2022-10-22T03:21:07;13.20;99.90
11043;DHT22;5574;48.786;10.120;2022-10-22T03:23:37;13.20;99.90
11043;DHT22;5574;48.786;10.120;2022-10-22T03:26:05;13.10;99.90
11043;DHT22;5574;48.786;10.120;2022-10-22T03:28:33;13.10;99.90
11043;DHT22;5574;48.786;10.120;2022-10-22T03:31:01;13.10;99.90
11043;DHT22;5574;48.786;10.120;2022-10-22T03:33:27;13.10;99.90
11043;DHT22;5574;48.786;10.120;2022-10-22T03:35:54;13.00;99.90
11043;DHT22;5574;48.786;10.120;2022-10-22T03:38:21;13.00;99.90
11043;DHT22;5574;48.786;10.120;2022-10-22T03:40:49;13.00;99.90
11043;DHT22;5574;48.786;10.120;2022-10-22T03:43:16;13.00;99.90
11043;DHT22;5574;48.786;10.120;2022-10-22T03:45:43;13.00;99.90
11043;DHT22;5574;48.786;10.120;2022-10-22T03:48:09;13.00;99.90
11043;DHT22;5574;48.786;10.120;2022-10-22T03:50:36;13.00;99.90
11043;DHT22;5574;48.786;10.120;2022-10-22T03:53:03;12.90;99.90
11043;DHT22;5574;48.786;10.120;2022-10-22T03:55:31;12.90;99.90
11043;DHT22;5574;48.786;10.120;2022-10-22T03:57:59;12.90;99.90
11043;DHT22;5574;48.786;10.120;2022-10-22T04:00:26;13.00;99.90
11043;DHT22;5574;48.786;10.120;2022-10-22T04:02:53;12.90;99.90
11043;DHT22;5574;48.786;10.120;2022-10-22T04:05:20;12.90;99.90
11043;DHT22;5574;48.786;10.120;2022-10-22T04:07:46;12.90;99.90
11043;DHT22;5574;48.786;10.120;2022-10-22T04:10:13;12.90;99.90
11043;DHT22;5574;48.786;10.120;2022-10-22T04:12:40;12.80;99.90
11043;DHT22;5574;48.786;10.120;2022-10-22T04:15:09;12.80;99.90
11043;DHT22;5574;48.786;10.120;2022-10-22T04:17:36;12.80;99.90
11043;DHT22;5574;48.786;10.120;2022-10-22T04:20:03;12.80;99.90
11043;DHT22;5574;48.786;10.120;2022-10-22T04:22:32;12.80;99.90
11043;DHT22;5574;48.786;10.120;2022-10-22T04:24:59;12.80;99.90
11043;DHT22;5574;48.786;10.120;2022-10-22T04:27:28;12.80;99.90
11043;DHT22;5574;48.786;10.120;2022-10-22T04:29:55;12.80;99.90
11043;DHT22;5574;48.786;10.120;2022-10-22T04:32:23;12.80;99.90
11043;DHT22;5574;48.786;10.120;2022-10-22T04:34:50;12.90;99.90
11043;DHT22;5574;48.786;10.120;2022-10-22T04:37:17;12.90;99.90
11043;DHT22;5574;48.786;10.120;2022-10-22T04:39:43;12.90;99.90
11043;DHT22;5574;48.786;10.120;2022-10-22T04:42:10;12.80;99.90
11043;DHT22;5574;48.786;10.120;2022-10-22T04:44:37;12.80;99.90
11043;DHT22;5574;48.786;10.120;2022-10-22T04:47:04;12.80;99.90
11043;DHT22;5574;48.786;10.120;2022-10-22T04:49:32;12.80;99.90
11043;DHT22;5574;48.786;10.120;2022-10-22T04:51:58;12.80;99.90
11043;DHT22;5574;48.786;10.120;2022-10-22T04:54:25;12.80;99.90
11043;DHT22;5574;48.786;10.120;2022-10-22T04:56:52;12.80;99.90
11043;DHT22;5574;48.786;10.120;2022-10-22T04:59:19;12.80;99.90
11043;DHT22;5574;48.786;10.120;2022-10-22T05:01:45;12.80;99.90
11043;DHT22;5574;48.786;10.120;2022-10-22T05:04:14;12.80;99.90
11043;DHT22;5574;48.786;10.120;2022-10-22T05:06:42;12.80;99.90
11043;DHT22;5574;48.786;10.120;2022-10-22T05:09:13;12.80;99.90
11043;DHT22;5574;48.786;10.120;2022-10-22T05:11:41;12.80;99.90
11043;DHT22;5574;48.786;10.120;2022-10-22T05:14:10;12.80;99.90
11043;DHT22;5574;48.786;10.120;2022-10-22T05:16:36;12.80;99.90
11043;DHT22;5574;48.786;10.120;2022-10-22T05:19:04;12.70;99.90
11043;DHT22;5574;48.786;10.120;2022-10-22T05:21:31;12.70;99.90
11043;DHT22;5574;48.786;10.120;2022-10-22T05:24:00;12.70;99.90
11043;DHT22;5574;48.786;10.120;2022-10-22T05:26:27;12.70;99.90
11043;DHT22;5574;48.786;10.120;2022-10-22T05:28:54;12.70;99.90
11043;DHT22;5574;48.786;10.120;2022-10-22T05:31:21;12.70;99.90
11043;DHT22;5574;48.786;10.120;2022-10-22T05:33:48;12.70;99.90
11043;DHT22;5574;48.786;10.120;2022-10-22T05:36:17;12.70;99.90
11043;DHT22;5574;48.786;10.120;2022-10-22T05:38:44;12.60;99.90
11043;DHT22;5574;48.786;10.120;2022-10-22T05:41:14;12.60;99.90
11043;DHT22;5574;48.786;10.120;2022-10-22T05:43:40;12.60;99.90
11043;DHT22;5574;48.786;10.120;2022-10-22T05:46:09;12.60;99.90
11043;DHT22;5574;48.786;10.120;2022-10-22T05:48:36;12.60;99.90
11043;DHT22;5574;48.786;10.120;2022-10-22T05:51:04;12.60;99.90
11043;DHT22;5574;48.786;10.120;2022-10-22T05:53:31;12.70;99.90
11043;DHT22;5574;48.786;10.120;2022-10-22T05:56:03;12.60;99.90
11043;DHT22;5574;48.786;10.120;2022-10-22T05:58:31;12.60;99.90
11043;DHT22;5574;48.786;10.120;2022-10-22T06:01:02;12.60;99.90
11043;DHT22;5574;48.786;10.120;2022-10-22T06:03:29;12.60;99.90
11043;DHT22;5574;48.786;10.120;2022-10-22T06:05:58;12.60;99.90
11043;DHT22;5574;48.786;10.120;2022-10-22T06:08:25;12.60;99.90
11043;DHT22;5574;48.786;10.120;2022-10-22T06:10:53;12.60;99.90
11043;DHT22;5574;48.786;10.120;2022-10-22T06:13:19;12.60;99.90
11043;DHT22;5574;48.786;10.120;2022-10-22T06:15:48;12.50;99.90
11043;DHT22;5574;48.786;10.120;2022-10-22T06:18:17;12.50;99.90
11043;DHT22;5574;48.786;10.120;2022-10-22T06:20:43;12.50;99.90
11043;DHT22;5574;48.786;10.120;2022-10-22T06:23:12;12.50;99.90
11043;DHT22;5574;48.786;10.120;2022-10-22T06:25:39;12.50;99.90
11043;DHT22;5574;48.786;10.120;2022-10-22T06:28:05;12.60;99.90
11043;DHT22;5574;48.786;10.120;2022-10-22T06:30:32;12.50;99.90
11043;DHT22;5574;48.786;10.120;2022-10-22T06:33:00;12.50;99.90
11043;DHT22;5574;48.786;10.120;2022-10-22T06:35:27;12.40;99.90
11043;DHT22;5574;48.786;10.120;2022-10-22T06:37:54;12.40;99.90
11043;DHT22;5574;48.786;10.120;2022-10-22T06:40:20;12.40;99.90
11043;DHT22;5574;48.786;10.120;2022-10-22T06:42:47;12.40;99.90
11043;DHT22;5574;48.786;10.120;2022-10-22T06:45:14;12.40;99.90
11043;DHT22;5574;48.786;10.120;2022-10-22T06:47:41;12.50;99.90
11043;DHT22;5574;48.786;10.120;2022-10-22T06:50:09;12.50;99.90
11043;DHT22;5574;48.786;10.120;2022-10-22T06:52:36;12.50;99.90
11043;DHT22;5574;48.786;10.120;2022-10-22T06:55:03;12.50;99.90
11043;DHT22;5574;48.786;10.120;2022-10-22T06:57:29;12.50;99.90
11043;DHT22;5574;48.786;10.120;2022-10-22T06:59:56;12.50;99.90
11043;DHT22;5574;48.786;10.120;2022-10-22T07:02:23;12.50;99.90
11043;DHT22;5574;48.786;10.120;2022-10-22T07:04:49;12.50;99.90
11043;DHT22;5574;48.786;10.120;2022-10-22T07:07:18;12.60;99.90
11043;DHT22;5574;48.786;10.120;2022-10-22T07:09:45;12.60;99.90
11043;DHT22;5574;48.786;10.120;2022-10-22T07:12:13;12.60;99.90
11043;DHT22;5574;48.786;10.120;2022-10-22T07:14:40;12.60;99.90
11043;DHT22;5574;48.786;10.120;2022-10-22T07:17:07;12.60;99.90
11043;DHT22;5574;48.786;10.120;2022-10-22T07:19:34;12.60;99.90
11043;DHT22;5574;48.786;10.120;2022-10-22T07:22:01;12.70;99.90
11043;DHT22;5574;48.786;10.120;2022-10-22T07:24:29;12.70;99.90
11043;DHT22;5574;48.786;10.120;2022-10-22T07:26:56;12.70;99.90
11043;DHT22;5574;48.786;10.120;2022-10-22T07:29:23;12.80;99.90
11043;DHT22;5574;48.786;10.120;2022-10-22T07:31:50;12.80;99.90
11043;DHT22;5574;48.786;10.120;2022-10-22T07:34:16;12.80;99.90
11043;DHT22;5574;48.786;10.120;2022-10-22T07:36:43;12.80;99.90
11043;DHT22;5574;48.786;10.120;2022-10-22T07:39:10;12.80;99.90
11043;DHT22;5574;48.786;10.120;2022-10-22T07:41:38;12.80;99.90
11043;DHT22;5574;48.786;10.120;2022-10-22T07:44:04;12.80;99.90
11043;DHT22;5574;48.786;10.120;2022-10-22T07:46:31;12.90;99.90
11043;DHT22;5574;48.786;10.120;2022-10-22T07:48:59;12.90;99.90
11043;DHT22;5574;48.786;10.120;2022-10-22T07:51:26;13.00;99.90
11043;DHT22;5574;48.786;10.120;2022-10-22T07:53:53;13.00;99.90
11043;DHT22;5574;48.786;10.120;2022-10-22T07:56:19;13.00;99.90
11043;DHT22;5574;48.786;10.120;2022-10-22T07:58:48;13.10;99.90
11043;DHT22;5574;48.786;10.120;2022-10-22T08:01:14;13.10;99.90
11043;DHT22;5574;48.786;10.120;2022-10-22T08:03:41;13.20;99.90
11043;DHT22;5574;48.786;10.120;2022-10-22T08:06:09;13.20;99.90
11043;DHT22;5574;48.786;10.120;2022-10-22T08:08:38;13.30;99.90
11043;DHT22;5574;48.786;10.120;2022-10-22T08:11:05;13.30;99.90
11043;DHT22;5574;48.786;10.120;2022-10-22T08:13:31;13.40;99.90
11043;DHT22;5574;48.786;10.120;2022-10-22T08:15:59;13.40;99.90
11043;DHT22;5574;48.786;10.120;2022-10-22T08:18:27;13.50;99.90
11043;DHT22;5574;48.786;10.120;2022-10-22T08:20:54;13.60;99.90
11043;DHT22;5574;48.786;10.120;2022-10-22T08:23:21;13.70;99.90
11043;DHT22;5574;48.786;10.120;2022-10-22T08:25:47;13.80;99.90
11043;DHT22;5574;48.786;10.120;2022-10-22T08:28:15;13.90;99.90
11043;DHT22;5574;48.786;10.120;2022-10-22T08:30:41;14.00;99.90
11043;DHT22;5574;48.786;10.120;2022-10-22T08:33:12;14.00;99.90
11043;DHT22;5574;48.786;10.120;2022-10-22T08:35:38;14.10;99.90
11043;DHT22;5574;48.786;10.120;2022-10-22T08:38:05;14.20;99.90
11043;DHT22;5574;48.786;10.120;2022-10-22T08:40:34;14.10;99.90
11043;DHT22;5574;48.786;10.120;2022-10-22T08:43:36;14.10;99.90
11043;DHT22;5574;48.786;10.120;2022-10-22T08:46:20;14.10;99.90
11043;DHT22;5574;48.786;10.120;2022-10-22T08:48:54;14.10;99.90
11043;DHT22;5574;48.786;10.120;2022-10-22T08:51:24;14.10;99.90
11043;DHT22;5574;48.786;10.120;2022-10-22T08:54:06;14.20;99.90
11043;DHT22;5574;48.786;10.120;2022-10-22T08:56:35;14.40;99.90
11043;DHT22;5574;48.786;10.120;2022-10-22T08:59:09;14.50;99.90
11043;DHT22;5574;48.786;10.120;2022-10-22T09:01:41;14.70;99.90
11043;DHT22;5574;48.786;10.120;2022-10-22T09:04:16;15.00;99.90
11043;DHT22;5574;48.786;10.120;2022-10-22T09:06:46;15.20;99.90
11043;DHT22;5574;48.786;10.120;2022-10-22T09:09:16;15.50;99.90
11043;DHT22;5574;48.786;10.120;2022-10-22T09:11:44;15.70;99.90
11043;DHT22;5574;48.786;10.120;2022-10-22T09:14:14;16.00;99.90
11043;DHT22;5574;48.786;10.120;2022-10-22T09:17:01;16.10;99.90
11043;DHT22;5574;48.786;10.120;2022-10-22T09:19:37;16.30;99.90
11043;DHT22;5574;48.786;10.120;2022-10-22T09:22:14;16.60;99.90
11043;DHT22;5574;48.786;10.120;2022-10-22T09:24:45;16.80;99.90
11043;DHT22;5574;48.786;10.120;2022-10-22T09:27:14;16.80;99.90
11043;DHT22;5574;48.786;10.120;2022-10-22T09:29:42;16.90;99.90
11043;DHT22;5574;48.786;10.120;2022-10-22T09:32:09;17.00;99.90
11043;DHT22;5574;48.786;10.120;2022-10-22T09:34:37;17.20;99.90
11043;DHT22;5574;48.786;10.120;2022-10-22T09:37:06;17.30;99.90
11043;DHT22;5574;48.786;10.120;2022-10-22T09:39:36;17.40;99.90
11043;DHT22;5574;48.786;10.120;2022-10-22T09:42:04;17.60;99.90
11043;DHT22;5574;48.786;10.120;2022-10-22T09:44:32;17.70;99.90
11043;DHT22;5574;48.786;10.120;2022-10-22T09:47:03;17.70;99.90
11043;DHT22;5574;48.786;10.120;2022-10-22T09:49:33;17.80;99.90
11043;DHT22;5574;48.786;10.120;2022-10-22T09:52:02;18.00;99.90
11043;DHT22;5574;48.786;10.120;2022-10-22T09:54:38;18.10;99.90
11043;DHT22;5574;48.786;10.120;2022-10-22T09:57:12;18.20;99.90
11043;DHT22;5574;48.786;10.120;2022-10-22T09:59:41;18.00;99.90
11043;DHT22;5574;48.786;10.120;2022-10-22T10:02:12;18.10;99.90
11043;DHT22;5574;48.786;10.120;2022-10-22T10:04:41;18.10;99.90
11043;DHT22;5574;48.786;10.120;2022-10-22T10:07:17;18.40;99.90
11043;DHT22;5574;48.786;10.120;2022-10-22T10:09:45;18.80;99.90
11043;DHT22;5574;48.786;10.120;2022-10-22T10:12:21;19.00;99.90
11043;DHT22;5574;48.786;10.120;2022-10-22T10:14:58;18.90;99.90
11043;DHT22;5574;48.786;10.120;2022-10-22T10:17:35;18.60;99.90
11043;DHT22;5574;48.786;10.120;2022-10-22T10:20:15;18.30;99.90
11043;DHT22;5574;48.786;10.120;2022-10-22T10:22:56;18.50;99.90
11043;DHT22;5574;48.786;10.120;2022-10-22T10:25:41;18.40;99.90
11043;DHT22;5574;48.786;10.120;2022-10-22T10:28:21;18.80;99.90
11043;DHT22;5574;48.786;10.120;2022-10-22T10:31:03;18.50;99.90
11043;DHT22;5574;48.786;10.120;2022-10-22T10:33:40;18.90;99.90
11043;DHT22;5574;48.786;10.120;2022-10-22T10:36:17;19.10;99.90
11043;DHT22;5574;48.786;10.120;2022-10-22T10:38:55;19.40;99.90
11043;DHT22;5574;48.786;10.120;2022-10-22T10:41:30;19.60;99.90
11043;DHT22;5574;48.786;10.120;2022-10-22T10:44:11;19.80;99.90
11043;DHT22;5574;48.786;10.120;2022-10-22T10:46:46;19.90;99.90
11043;DHT22;5574;48.786;10.120;2022-10-22T10:49:18;19.90;99.90
11043;DHT22;5574;48.786;10.120;2022-10-22T10:51:52;20.00;99.90
11043;DHT22;5574;48.786;10.120;2022-10-22T10:54:34;20.20;99.90
11043;DHT22;5574;48.786;10.120;2022-10-22T10:57:12;20.30;99.90
11043;DHT22;5574;48.786;10.120;2022-10-22T10:59:57;20.50;99.90
11043;DHT22;5574;48.786;10.120;2022-10-22T11:02:51;20.30;99.90
11043;DHT22;5574;48.786;10.120;2022-10-22T11:05:29;20.00;99.90
11043;DHT22;5574;48.786;10.120;2022-10-22T11:08:01;19.80;99.90
11043;DHT22;5574;48.786;10.120;2022-10-22T11:10:36;19.40;99.90
11043;DHT22;5574;48.786;10.120;2022-10-22T11:13:10;19.50;99.90
11043;DHT22;5574;48.786;10.120;2022-10-22T11:15:39;19.80;99.90
11043;DHT22;5574;48.786;10.120;2022-10-22T11:18:15;19.80;99.90
11043;DHT22;5574;48.786;10.120;2022-10-22T11:20:49;19.90;99.90
11043;DHT22;5574;48.786;10.120;2022-10-22T11:23:24;19.90;99.90
11043;DHT22;5574;48.786;10.120;2022-10-22T11:25:54;19.90;99.90
11043;DHT22;5574;48.786;10.120;2022-10-22T11:28:26;19.90;99.90
11043;DHT22;5574;48.786;10.120;2022-10-22T11:30:58;19.90;99.90
11043;DHT22;5574;48.786;10.120;2022-10-22T11:33:30;19.90;99.90
11043;DHT22;5574;48.786;10.120;2022-10-22T11:35:59;20.00;99.90
11043;DHT22;5574;48.786;10.120;2022-10-22T11:38:28;20.00;99.90
11043;DHT22;5574;48.786;10.120;2022-10-22T11:40:59;20.00;99.90
11043;DHT22;5574;48.786;10.120;2022-10-22T11:43:29;20.10;99.90
11043;DHT22;5574;48.786;10.120;2022-10-22T11:46:01;19.90;99.90
11043;DHT22;5574;48.786;10.120;2022-10-22T11:48:35;19.80;99.90
11043;DHT22;5574;48.786;10.120;2022-10-22T11:51:03;19.80;99.90
11043;DHT22;5574;48.786;10.120;2022-10-22T11:53:31;19.50;99.90
11043;DHT22;5574;48.786;10.120;2022-10-22T11:56:21;19.70;99.90
11043;DHT22;5574;48.786;10.120;2022-10-22T11:58:49;19.80;99.90
11043;DHT22;5574;48.786;10.120;2022-10-22T12:01:22;19.80;99.90
11043;DHT22;5574;48.786;10.120;2022-10-22T12:03:50;19.80;99.90
11043;DHT22;5574;48.786;10.120;2022-10-22T12:06:20;19.50;99.90
11043;DHT22;5574;48.786;10.120;2022-10-22T12:08:55;19.30;99.90
11043;DHT22;5574;48.786;10.120;2022-10-22T12:11:25;19.30;99.90
11043;DHT22;5574;48.786;10.120;2022-10-22T12:14:01;19.30;99.90
11043;DHT22;5574;48.786;10.120;2022-10-22T12:16:36;19.50;99.90
11043;DHT22;5574;48.786;10.120;2022-10-22T12:19:12;19.60;99.90
11043;DHT22;5574;48.786;10.120;2022-10-22T12:21:41;19.60;99.90
11043;DHT22;5574;48.786;10.120;2022-10-22T12:24:12;19.70;99.90
11043;DHT22;5574;48.786;10.120;2022-10-22T12:26:40;19.70;99.90
11043;DHT22;5574;48.786;10.120;2022-10-22T12:29:11;19.80;99.90
11043;DHT22;5574;48.786;10.120;2022-10-22T12:31:40;19.90;99.90
11043;DHT22;5574;48.786;10.120;2022-10-22T12:34:13;19.70;99.90
11043;DHT22;5574;48.786;10.120;2022-10-22T12:36:39;19.30;99.90
11043;DHT22;5574;48.786;10.120;2022-10-22T12:39:11;19.30;99.90
11043;DHT22;5574;48.786;10.120;2022-10-22T12:41:39;19.30;99.90
11043;DHT22;5574;48.786;10.120;2022-10-22T12:44:10;19.30;99.90
11043;DHT22;5574;48.786;10.120;2022-10-22T12:46:38;19.40;99.90
11043;DHT22;5574;48.786;10.120;2022-10-22T12:49:07;19.40;99.90
11043;DHT22;5574;48.786;10.120;2022-10-22T12:51:36;19.40;99.90
11043;DHT22;5574;48.786;10.120;2022-10-22T12:54:06;19.40;99.90
11043;DHT22;5574;48.786;10.120;2022-10-22T12:56:34;19.40;99.90
11043;DHT22;5574;48.786;10.120;2022-10-22T12:59:04;19.40;99.90
11043;DHT22;5574;48.786;10.120;2022-10-22T13:01:36;19.30;99.90
11043;DHT22;5574;48.786;10.120;2022-10-22T13:04:12;19.30;99.90
11043;DHT22;5574;48.786;10.120;2022-10-22T13:06:45;19.20;99.90
11043;DHT22;5574;48.786;10.120;2022-10-22T13:09:15;19.20;99.90
11043;DHT22;5574;48.786;10.120;2022-10-22T13:11:48;19.10;99.90
11043;DHT22;5574;48.786;10.120;2022-10-22T13:14:20;19.00;99.90
11043;DHT22;5574;48.786;10.120;2022-10-22T13:17:06;19.00;99.90
11043;DHT22;5574;48.786;10.120;2022-10-22T13:19:46;18.90;99.90
11043;DHT22;5574;48.786;10.120;2022-10-22T13:22:28;18.70;99.90
11043;DHT22;5574;48.786;10.120;2022-10-22T13:24:56;18.70;99.90
11043;DHT22;5574;48.786;10.120;2022-10-22T13:27:25;18.70;99.90
11043;DHT22;5574;48.786;10.120;2022-10-22T13:29:52;18.60;99.90
11043;DHT22;5574;48.786;10.120;2022-10-22T13:32:28;18.50;99.90
11043;DHT22;5574;48.786;10.120;2022-10-22T13:34:57;18.60;99.90
11043;DHT22;5574;48.786;10.120;2022-10-22T13:37:25;18.60;99.90
11043;DHT22;5574;48.786;10.120;2022-10-22T13:39:52;18.60;99.90
11043;DHT22;5574;48.786;10.120;2022-10-22T13:42:19;18.50;99.90
11043;DHT22;5574;48.786;10.120;2022-10-22T13:44:46;18.60;99.90
11043;DHT22;5574;48.786;10.120;2022-10-22T13:47:24;18.60;99.90
11043;DHT22;5574;48.786;10.120;2022-10-22T13:49:55;18.60;99.90
11043;DHT22;5574;48.786;10.120;2022-10-22T13:52:28;18.60;99.90
11043;DHT22;5574;48.786;10.120;2022-10-22T13:54:55;18.70;99.90
11043;DHT22;5574;48.786;10.120;2022-10-22T13:57:22;18.60;99.90
11043;DHT22;5574;48.786;10.120;2022-10-22T13:59:49;18.70;99.90
11043;DHT22;5574;48.786;10.120;2022-10-22T14:02:16;18.60;99.90
11043;DHT22;5574;48.786;10.120;2022-10-22T14:04:43;18.60;99.90
11043;DHT22;5574;48.786;10.120;2022-10-22T14:07:13;18.60;99.90
11043;DHT22;5574;48.786;10.120;2022-10-22T14:09:41;18.70;99.90
11043;DHT22;5574;48.786;10.120;2022-10-22T14:12:11;18.70;99.90
11043;DHT22;5574;48.786;10.120;2022-10-22T14:14:38;18.80;99.90
11043;DHT22;5574;48.786;10.120;2022-10-22T14:17:07;18.80;99.90
11043;DHT22;5574;48.786;10.120;2022-10-22T14:19:34;18.70;99.90
11043;DHT22;5574;48.786;10.120;2022-10-22T14:22:01;18.70;99.90
11043;DHT22;5574;48.786;10.120;2022-10-22T14:24:29;18.70;99.90
11043;DHT22;5574;48.786;10.120;2022-10-22T14:26:56;18.70;99.90
11043;DHT22;5574;48.786;10.120;2022-10-22T14:29:23;18.70;99.90
11043;DHT22;5574;48.786;10.120;2022-10-22T14:31:50;18.60;99.90
11043;DHT22;5574;48.786;10.120;2022-10-22T14:34:17;18.60;99.90
11043;DHT22;5574;48.786;10.120;2022-10-22T14:36:43;18.60;99.90
11043;DHT22;5574;48.786;10.120;2022-10-22T14:39:10;18.60;99.90
11043;DHT22;5574;48.786;10.120;2022-10-22T14:41:39;18.60;99.90
11043;DHT22;5574;48.786;10.120;2022-10-22T14:44:07;18.50;99.90
11043;DHT22;5574;48.786;10.120;2022-10-22T14:46:37;18.50;99.90
11043;DHT22;5574;48.786;10.120;2022-10-22T14:49:04;18.60;99.90
11043;DHT22;5574;48.786;10.120;2022-10-22T14:51:31;18.50;99.90
11043;DHT22;5574;48.786;10.120;2022-10-22T14:53:58;18.50;99.90
11043;DHT22;5574;48.786;10.120;2022-10-22T14:56:24;18.40;99.90
11043;DHT22;5574;48.786;10.120;2022-10-22T14:58:52;18.30;99.90
11043;DHT22;5574;48.786;10.120;2022-10-22T15:01:19;18.20;99.90
11043;DHT22;5574;48.786;10.120;2022-10-22T15:03:46;18.20;99.90
11043;DHT22;5574;48.786;10.120;2022-10-22T15:06:12;18.10;99.90
11043;DHT22;5574;48.786;10.120;2022-10-22T15:08:39;18.00;99.90
11043;DHT22;5574;48.786;10.120;2022-10-22T15:11:09;17.90;99.90
11043;DHT22;5574;48.786;10.120;2022-10-22T15:13:36;17.80;99.90
11043;DHT22;5574;48.786;10.120;2022-10-22T15:16:07;17.70;99.90
11043;DHT22;5574;48.786;10.120;2022-10-22T15:18:34;17.50;99.90
11043;DHT22;5574;48.786;10.120;2022-10-22T15:21:03;17.40;99.90
11043;DHT22;5574;48.786;10.120;2022-10-22T15:23:30;17.30;99.90
11043;DHT22;5574;48.786;10.120;2022-10-22T15:25:57;17.20;99.90
11043;DHT22;5574;48.786;10.120;2022-10-22T15:28:24;17.00;99.90
11043;DHT22;5574;48.786;10.120;2022-10-22T15:30:52;17.00;99.90
11043;DHT22;5574;48.786;10.120;2022-10-22T15:33:20;17.00;99.90
11043;DHT22;5574;48.786;10.120;2022-10-22T15:35:47;16.90;99.90
11043;DHT22;5574;48.786;10.120;2022-10-22T15:38:13;16.80;99.90
11043;DHT22;5574;48.786;10.120;2022-10-22T15:40:40;16.70;99.90
11043;DHT22;5574;48.786;10.120;2022-10-22T15:43:07;16.60;99.90
11043;DHT22;5574;48.786;10.120;2022-10-22T15:45:34;16.50;99.90
11043;DHT22;5574;48.786;10.120;2022-10-22T15:48:01;16.40;99.90